sensor_id;sensor_type;location;lat;lon;timestamp;P1;durP1;ratioP1;P2;durP2;ratioP2
78778;SDS011;68121;52.404;5.318;2024-03-23T00:51:26;12.27;;;2.33;;
78778;SDS011;68121;52.404;5.318;2024-03-23T00:53:52;7.70;;;2.28;;
78778;SDS011;68121;52.404;5.318;2024-03-23T00:56:18;9.00;;;1.67;;
78778;SDS011;68121;52.404;5.318;2024-03-23T00:58:44;14.73;;;2.42;;
78778;SDS011;68121;52.404;5.318;2024-03-23T01:01:11;7.22;;;1.90;;
78778;SDS011;68121;52.404;5.318;2024-03-23T01:03:37;11.25;;;2.28;;
78778;SDS011;68121;52.404;5.318;2024-03-23T01:06:03;14.48;;;2.47;;
78778;SDS011;68121;52.404;5.318;2024-03-23T01:08:29;11.68;;;2.25;;
78778;SDS011;68121;52.404;5.318;2024-03-23T01:10:59;9.02;;;2.35;;
78778;SDS011;68121;52.404;5.318;2024-03-23T01:13:26;9.38;;;2.25;;
78778;SDS011;68121;52.404;5.318;2024-03-23T01:15:53;9.23;;;2.03;;
78778;SDS011;68121;52.404;5.318;2024-03-23T01:18:21;9.98;;;2.00;;
78778;SDS011;68121;52.404;5.318;2024-03-23T01:20:47;11.05;;;2.15;;
78778;SDS011;68121;52.404;5.318;2024-03-23T01:23:13;8.10;;;2.05;;
78778;SDS011;68121;52.404;5.318;2024-03-23T01:25:40;7.00;;;1.92;;
78778;SDS011;68121;52.404;5.318;2024-03-23T01:28:06;15.73;;;2.35;;
78778;SDS011;68121;52.404;5.318;2024-03-23T01:30:33;7.68;;;1.95;;
78778;SDS011;68121;52.404;5.318;2024-03-23T01:33:02;9.80;;;2.15;;
78778;SDS011;68121;52.404;5.318;2024-03-23T01:35:28;13.73;;;2.42;;
78778;SDS011;68121;52.404;5.318;2024-03-23T01:37:54;8.48;;;2.53;;
78778;SDS011;68121;52.404;5.318;2024-03-23T01:40:20;14.30;;;2.38;;
78778;SDS011;68121;52.404;5.318;2024-03-23T01:42:56;12.68;;;2.50;;
78778;SDS011;68121;52.404;5.318;2024-03-23T01:45:22;9.20;;;2.75;;
78778;SDS011;68121;52.404;5.318;2024-03-23T01:47:49;8.90;;;2.70;;
78778;SDS011;68121;52.404;5.318;2024-03-23T01:50:16;8.63;;;2.63;;
78778;SDS011;68121;52.404;5.318;2024-03-23T01:52:42;7.43;;;2.03;;
78778;SDS011;68121;52.404;5.318;2024-03-23T01:55:09;10.30;;;2.97;;
78778;SDS011;68121;52.404;5.318;2024-03-23T01:57:35;17.77;;;3.58;;
78778;SDS011;68121;52.404;5.318;2024-03-23T02:00:02;14.52;;;3.60;;
78778;SDS011;68121;52.404;5.318;2024-03-23T02:02:28;17.40;;;3.42;;
78778;SDS011;68121;52.404;5.318;2024-03-23T02:04:54;15.65;;;3.20;;
78778;SDS011;68121;52.404;5.318;2024-03-23T02:07:20;10.32;;;3.15;;
78778;SDS011;68121;52.404;5.318;2024-03-23T02:09:46;13.88;;;2.78;;
78778;SDS011;68121;52.404;5.318;2024-03-23T02:12:12;9.60;;;2.80;;
78778;SDS011;68121;52.404;5.318;2024-03-23T02:14:39;10.77;;;2.50;;
78778;SDS011;68121;52.404;5.318;2024-03-23T02:17:05;6.70;;;1.98;;
78778;SDS011;68121;52.404;5.318;2024-03-23T02:19:31;8.68;;;2.88;;
78778;SDS011;68121;52.404;5.318;2024-03-23T02:21:57;13.23;;;2.75;;
78778;SDS011;68121;52.404;5.318;2024-03-23T02:24:23;14.07;;;2.47;;
78778;SDS011;68121;52.404;5.318;2024-03-23T02:26:49;12.95;;;3.15;;
78778;SDS011;68121;52.404;5.318;2024-03-23T02:29:15;8.63;;;2.00;;
78778;SDS011;68121;52.404;5.318;2024-03-23T02:31:41;8.45;;;2.25;;
78778;SDS011;68121;52.404;5.318;2024-03-23T02:34:07;5.57;;;1.92;;
78778;SDS011;68121;52.404;5.318;2024-03-23T02:36:33;9.35;;;1.98;;
78778;SDS011;68121;52.404;5.318;2024-03-23T02:38:59;7.68;;;1.80;;
78778;SDS011;68121;52.404;5.318;2024-03-23T02:41:25;10.48;;;1.85;;
78778;SDS011;68121;52.404;5.318;2024-03-23T02:43:51;12.65;;;2.88;;
78778;SDS011;68121;52.404;5.318;2024-03-23T02:46:18;7.43;;;1.50;;
78778;SDS011;68121;52.404;5.318;2024-03-23T02:48:44;4.72;;;1.25;;
78778;SDS011;68121;52.404;5.318;2024-03-23T02:51:10;9.05;;;1.67;;
78778;SDS011;68121;52.404;5.318;2024-03-23T02:53:36;13.27;;;2.05;;
78778;SDS011;68121;52.404;5.318;2024-03-23T02:56:02;6.40;;;1.92;;
78778;SDS011;68121;52.404;5.318;2024-03-23T02:58:28;3.67;;;1.45;;
78778;SDS011;68121;52.404;5.318;2024-03-23T03:00:55;6.22;;;2.08;;
78778;SDS011;68121;52.404;5.318;2024-03-23T03:03:21;9.02;;;1.50;;
78778;SDS011;68121;52.404;5.318;2024-03-23T03:05:47;5.47;;;1.38;;
78778;SDS011;68121;52.404;5.318;2024-03-23T03:08:13;7.90;;;1.10;;
78778;SDS011;68121;52.404;5.318;2024-03-23T03:10:39;7.43;;;1.50;;
78778;SDS011;68121;52.404;5.318;2024-03-23T03:13:05;10.45;;;1.10;;
78778;SDS011;68121;52.404;5.318;2024-03-23T03:15:31;5.97;;;1.65;;
78778;SDS011;68121;52.404;5.318;2024-03-23T03:17:57;7.18;;;1.15;;
78778;SDS011;68121;52.404;5.318;2024-03-23T03:20:23;5.72;;;1.38;;
78778;SDS011;68121;52.404;5.318;2024-03-23T03:22:49;7.05;;;1.02;;
78778;SDS011;68121;52.404;5.318;2024-03-23T03:25:15;3.97;;;1.13;;
78778;SDS011;68121;52.404;5.318;2024-03-23T03:27:41;5.80;;;1.35;;
78778;SDS011;68121;52.404;5.318;2024-03-23T03:30:07;6.32;;;1.23;;
78778;SDS011;68121;52.404;5.318;2024-03-23T03:32:34;6.55;;;0.95;;
78778;SDS011;68121;52.404;5.318;2024-03-23T03:35:00;8.20;;;1.42;;
78778;SDS011;68121;52.404;5.318;2024-03-23T03:37:26;7.75;;;1.33;;
78778;SDS011;68121;52.404;5.318;2024-03-23T03:39:52;4.85;;;0.85;;
78778;SDS011;68121;52.404;5.318;2024-03-23T03:42:18;9.82;;;1.90;;
78778;SDS011;68121;52.404;5.318;2024-03-23T03:44:44;8.60;;;1.10;;
78778;SDS011;68121;52.404;5.318;2024-03-23T03:47:10;8.73;;;1.10;;
78778;SDS011;68121;52.404;5.318;2024-03-23T03:49:36;3.58;;;0.73;;
78778;SDS011;68121;52.404;5.318;2024-03-23T03:52:02;4.40;;;1.75;;
78778;SDS011;68121;52.404;5.318;2024-03-23T03:54:29;12.90;;;1.00;;
78778;SDS011;68121;52.404;5.318;2024-03-23T03:56:55;3.45;;;0.70;;
78778;SDS011;68121;52.404;5.318;2024-03-23T03:59:21;5.28;;;1.00;;
78778;SDS011;68121;52.404;5.318;2024-03-23T04:01:47;7.78;;;1.20;;
78778;SDS011;68121;52.404;5.318;2024-03-23T04:04:13;4.05;;;0.85;;
78778;SDS011;68121;52.404;5.318;2024-03-23T04:06:39;3.47;;;1.35;;
78778;SDS011;68121;52.404;5.318;2024-03-23T04:09:05;7.88;;;1.00;;
78778;SDS011;68121;52.404;5.318;2024-03-23T04:11:32;5.22;;;1.05;;
78778;SDS011;68121;52.404;5.318;2024-03-23T04:13:58;7.97;;;2.05;;
78778;SDS011;68121;52.404;5.318;2024-03-23T04:16:27;7.30;;;1.67;;
78778;SDS011;68121;52.404;5.318;2024-03-23T04:18:54;7.63;;;0.95;;
78778;SDS011;68121;52.404;5.318;2024-03-23T04:21:21;10.48;;;1.45;;
78778;SDS011;68121;52.404;5.318;2024-03-23T04:23:47;6.15;;;1.20;;
78778;SDS011;68121;52.404;5.318;2024-03-23T04:26:14;3.20;;;1.02;;
78778;SDS011;68121;52.404;5.318;2024-03-23T04:28:41;8.00;;;1.27;;
78778;SDS011;68121;52.404;5.318;2024-03-23T04:31:07;7.43;;;0.85;;
78778;SDS011;68121;52.404;5.318;2024-03-23T04:33:33;4.85;;;2.08;;
78778;SDS011;68121;52.404;5.318;2024-03-23T04:35:59;5.97;;;1.58;;
78778;SDS011;68121;52.404;5.318;2024-03-23T04:38:25;12.48;;;1.48;;
78778;SDS011;68121;52.404;5.318;2024-03-23T04:40:57;5.97;;;1.70;;
78778;SDS011;68121;52.404;5.318;2024-03-23T04:43:27;6.07;;;1.52;;
78778;SDS011;68121;52.404;5.318;2024-03-23T04:45:54;10.75;;;1.83;;
78778;SDS011;68121;52.404;5.318;2024-03-23T04:48:20;8.55;;;1.55;;
78778;SDS011;68121;52.404;5.318;2024-03-23T04:50:54;10.80;;;1.58;;
78778;SDS011;68121;52.404;5.318;2024-03-23T04:53:23;2.80;;;1.00;;
78778;SDS011;68121;52.404;5.318;2024-03-23T04:55:56;7.75;;;1.70;;
78778;SDS011;68121;52.404;5.318;2024-03-23T04:58:24;2.80;;;1.08;;
78778;SDS011;68121;52.404;5.318;2024-03-23T05:00:57;4.32;;;0.80;;
78778;SDS011;68121;52.404;5.318;2024-03-23T05:03:23;4.28;;;1.20;;
78778;SDS011;68121;52.404;5.318;2024-03-23T05:05:49;6.53;;;1.40;;
78778;SDS011;68121;52.404;5.318;2024-03-23T05:08:16;5.22;;;1.17;;
78778;SDS011;68121;52.404;5.318;2024-03-23T05:10:42;4.53;;;1.08;;
78778;SDS011;68121;52.404;5.318;2024-03-23T05:13:09;4.43;;;1.17;;
78778;SDS011;68121;52.404;5.318;2024-03-23T05:15:35;6.68;;;1.42;;
78778;SDS011;68121;52.404;5.318;2024-03-23T05:18:01;5.35;;;1.17;;
78778;SDS011;68121;52.404;5.318;2024-03-23T05:20:27;7.85;;;1.52;;
78778;SDS011;68121;52.404;5.318;2024-03-23T05:22:54;3.53;;;0.70;;
78778;SDS011;68121;52.404;5.318;2024-03-23T05:25:21;6.97;;;1.33;;
78778;SDS011;68121;52.404;5.318;2024-03-23T05:27:47;8.15;;;1.35;;
78778;SDS011;68121;52.404;5.318;2024-03-23T05:30:13;5.93;;;1.00;;
78778;SDS011;68121;52.404;5.318;2024-03-23T05:32:39;6.47;;;1.05;;
78778;SDS011;68121;52.404;5.318;2024-03-23T05:35:07;2.67;;;0.90;;
78778;SDS011;68121;52.404;5.318;2024-03-23T05:37:34;2.45;;;0.73;;
78778;SDS011;68121;52.404;5.318;2024-03-23T05:40:00;3.28;;;0.77;;
78778;SDS011;68121;52.404;5.318;2024-03-23T05:42:29;4.63;;;1.23;;
78778;SDS011;68121;52.404;5.318;2024-03-23T05:44:55;9.20;;;1.27;;
78778;SDS011;68121;52.404;5.318;2024-03-23T05:47:21;3.83;;;1.20;;
78778;SDS011;68121;52.404;5.318;2024-03-23T05:49:47;2.45;;;0.82;;
78778;SDS011;68121;52.404;5.318;2024-03-23T05:52:13;3.38;;;0.75;;
78778;SDS011;68121;52.404;5.318;2024-03-23T05:54:39;2.35;;;0.70;;
78778;SDS011;68121;52.404;5.318;2024-03-23T05:57:05;2.63;;;0.70;;
78778;SDS011;68121;52.404;5.318;2024-03-23T05:59:34;5.32;;;0.95;;
78778;SDS011;68121;52.404;5.318;2024-03-23T06:02:00;2.92;;;0.75;;
78778;SDS011;68121;52.404;5.318;2024-03-23T06:04:26;4.55;;;0.98;;
78778;SDS011;68121;52.404;5.318;2024-03-23T06:06:52;2.90;;;0.75;;
78778;SDS011;68121;52.404;5.318;2024-03-23T06:09:18;3.28;;;0.70;;
78778;SDS011;68121;52.404;5.318;2024-03-23T06:11:45;4.07;;;1.08;;
78778;SDS011;68121;52.404;5.318;2024-03-23T06:14:11;3.42;;;0.80;;
78778;SDS011;68121;52.404;5.318;2024-03-23T06:16:37;5.55;;;0.73;;
78778;SDS011;68121;52.404;5.318;2024-03-23T06:19:03;4.90;;;0.95;;
78778;SDS011;68121;52.404;5.318;2024-03-23T06:21:32;3.97;;;1.42;;
78778;SDS011;68121;52.404;5.318;2024-03-23T06:23:58;6.18;;;1.17;;
78778;SDS011;68121;52.404;5.318;2024-03-23T06:26:24;8.07;;;1.55;;
78778;SDS011;68121;52.404;5.318;2024-03-23T06:28:50;7.43;;;1.88;;
78778;SDS011;68121;52.404;5.318;2024-03-23T06:31:16;6.38;;;1.10;;
78778;SDS011;68121;52.404;5.318;2024-03-23T06:33:43;3.78;;;1.00;;
78778;SDS011;68121;52.404;5.318;2024-03-23T06:36:10;3.92;;;1.30;;
78778;SDS011;68121;52.404;5.318;2024-03-23T06:38:36;2.75;;;1.08;;
78778;SDS011;68121;52.404;5.318;2024-03-23T06:41:06;5.32;;;1.42;;
78778;SDS011;68121;52.404;5.318;2024-03-23T06:43:33;4.63;;;1.63;;
78778;SDS011;68121;52.404;5.318;2024-03-23T06:45:59;8.07;;;1.42;;
78778;SDS011;68121;52.404;5.318;2024-03-23T06:48:25;3.63;;;1.77;;
78778;SDS011;68121;52.404;5.318;2024-03-23T06:50:55;3.63;;;1.20;;
78778;SDS011;68121;52.404;5.318;2024-03-23T06:53:22;9.75;;;1.88;;
78778;SDS011;68121;52.404;5.318;2024-03-23T06:55:52;12.77;;;2.15;;
78778;SDS011;68121;52.404;5.318;2024-03-23T06:58:19;7.50;;;1.50;;
78778;SDS011;68121;52.404;5.318;2024-03-23T07:00:46;6.75;;;1.48;;
78778;SDS011;68121;52.404;5.318;2024-03-23T07:03:12;3.80;;;1.25;;
78778;SDS011;68121;52.404;5.318;2024-03-23T07:05:38;6.40;;;1.42;;
78778;SDS011;68121;52.404;5.318;2024-03-23T07:08:04;8.50;;;1.80;;
78778;SDS011;68121;52.404;5.318;2024-03-23T07:10:30;3.47;;;1.10;;
78778;SDS011;68121;52.404;5.318;2024-03-23T07:12:57;4.90;;;1.73;;
78778;SDS011;68121;52.404;5.318;2024-03-23T07:15:23;8.45;;;2.00;;
78778;SDS011;68121;52.404;5.318;2024-03-23T07:17:49;8.35;;;1.30;;
78778;SDS011;68121;52.404;5.318;2024-03-23T07:20:15;6.72;;;2.17;;
78778;SDS011;68121;52.404;5.318;2024-03-23T07:22:41;3.38;;;1.00;;
78778;SDS011;68121;52.404;5.318;2024-03-23T07:25:07;5.45;;;1.17;;
78778;SDS011;68121;52.404;5.318;2024-03-23T07:27:33;6.53;;;1.38;;
78778;SDS011;68121;52.404;5.318;2024-03-23T07:29:59;6.60;;;1.75;;
78778;SDS011;68121;52.404;5.318;2024-03-23T07:32:26;6.55;;;1.30;;
78778;SDS011;68121;52.404;5.318;2024-03-23T07:34:52;9.57;;;1.83;;
78778;SDS011;68121;52.404;5.318;2024-03-23T07:37:18;4.82;;;1.20;;
78778;SDS011;68121;52.404;5.318;2024-03-23T07:39:44;5.65;;;1.67;;
78778;SDS011;68121;52.404;5.318;2024-03-23T07:42:11;6.80;;;0.90;;
78778;SDS011;68121;52.404;5.318;2024-03-23T07:44:37;6.55;;;1.40;;
78778;SDS011;68121;52.404;5.318;2024-03-23T07:47:03;4.90;;;1.30;;
78778;SDS011;68121;52.404;5.318;2024-03-23T07:49:29;8.02;;;1.52;;
78778;SDS011;68121;52.404;5.318;2024-03-23T07:51:55;9.05;;;1.42;;
78778;SDS011;68121;52.404;5.318;2024-03-23T07:54:21;3.92;;;0.98;;
78778;SDS011;68121;52.404;5.318;2024-03-23T07:56:47;5.55;;;1.48;;
78778;SDS011;68121;52.404;5.318;2024-03-23T07:59:13;5.63;;;0.77;;
78778;SDS011;68121;52.404;5.318;2024-03-23T08:01:39;4.78;;;1.45;;
78778;SDS011;68121;52.404;5.318;2024-03-23T08:04:05;5.88;;;1.13;;
78778;SDS011;68121;52.404;5.318;2024-03-23T08:06:31;4.47;;;1.27;;
78778;SDS011;68121;52.404;5.318;2024-03-23T08:08:57;3.70;;;1.10;;
78778;SDS011;68121;52.404;5.318;2024-03-23T08:11:27;9.85;;;1.45;;
78778;SDS011;68121;52.404;5.318;2024-03-23T08:13:54;6.80;;;1.08;;
78778;SDS011;68121;52.404;5.318;2024-03-23T08:16:21;4.47;;;1.20;;
78778;SDS011;68121;52.404;5.318;2024-03-23T08:18:47;6.57;;;1.17;;
78778;SDS011;68121;52.404;5.318;2024-03-23T08:21:14;7.60;;;1.30;;
78778;SDS011;68121;52.404;5.318;2024-03-23T08:23:40;6.90;;;1.20;;
78778;SDS011;68121;52.404;5.318;2024-03-23T08:26:07;3.85;;;0.88;;
78778;SDS011;68121;52.404;5.318;2024-03-23T08:28:34;7.05;;;1.52;;
78778;SDS011;68121;52.404;5.318;2024-03-23T08:31:05;10.77;;;1.75;;
78778;SDS011;68121;52.404;5.318;2024-03-23T08:33:33;3.22;;;0.65;;
78778;SDS011;68121;52.404;5.318;2024-03-23T08:36:00;4.68;;;1.17;;
78778;SDS011;68121;52.404;5.318;2024-03-23T08:38:28;4.22;;;1.20;;
78778;SDS011;68121;52.404;5.318;2024-03-23T08:40:57;3.78;;;0.80;;
78778;SDS011;68121;52.404;5.318;2024-03-23T08:43:28;4.63;;;0.98;;
78778;SDS011;68121;52.404;5.318;2024-03-23T08:48:40;7.22;;;1.42;;
78778;SDS011;68121;52.404;5.318;2024-03-23T08:51:11;6.22;;;1.20;;
78778;SDS011;68121;52.404;5.318;2024-03-23T08:53:38;6.07;;;0.73;;
78778;SDS011;68121;52.404;5.318;2024-03-23T08:56:06;5.25;;;1.35;;
78778;SDS011;68121;52.404;5.318;2024-03-23T08:58:32;8.35;;;2.25;;
78778;SDS011;68121;52.404;5.318;2024-03-23T09:01:03;4.28;;;1.00;;
78778;SDS011;68121;52.404;5.318;2024-03-23T09:03:34;6.85;;;0.88;;
78778;SDS011;68121;52.404;5.318;2024-03-23T09:06:02;5.43;;;1.02;;
78778;SDS011;68121;52.404;5.318;2024-03-23T09:08:35;2.55;;;0.45;;
78778;SDS011;68121;52.404;5.318;2024-03-23T09:11:05;2.55;;;0.50;;
78778;SDS011;68121;52.404;5.318;2024-03-23T09:13:35;2.65;;;0.80;;
78778;SDS011;68121;52.404;5.318;2024-03-23T09:16:02;5.18;;;1.73;;
78778;SDS011;68121;52.404;5.318;2024-03-23T09:18:32;2.92;;;0.93;;
78778;SDS011;68121;52.404;5.318;2024-03-23T09:21:00;2.78;;;1.10;;
78778;SDS011;68121;52.404;5.318;2024-03-23T09:23:28;4.57;;;0.90;;
78778;SDS011;68121;52.404;5.318;2024-03-23T09:25:54;5.32;;;1.05;;
78778;SDS011;68121;52.404;5.318;2024-03-23T09:28:20;5.72;;;0.98;;
78778;SDS011;68121;52.404;5.318;2024-03-23T09:30:46;4.43;;;0.90;;
78778;SDS011;68121;52.404;5.318;2024-03-23T09:33:12;7.80;;;1.15;;
78778;SDS011;68121;52.404;5.318;2024-03-23T09:35:39;6.63;;;0.70;;
78778;SDS011;68121;52.404;5.318;2024-03-23T09:38:06;3.75;;;0.98;;
78778;SDS011;68121;52.404;5.318;2024-03-23T09:40:39;7.68;;;1.40;;
78778;SDS011;68121;52.404;5.318;2024-03-23T09:43:07;5.95;;;0.85;;
78778;SDS011;68121;52.404;5.318;2024-03-23T09:45:35;1.77;;;0.50;;
78778;SDS011;68121;52.404;5.318;2024-03-23T09:48:04;5.70;;;0.50;;
78778;SDS011;68121;52.404;5.318;2024-03-23T09:50:32;2.38;;;0.43;;
78778;SDS011;68121;52.404;5.318;2024-03-23T09:52:58;4.15;;;1.10;;
78778;SDS011;68121;52.404;5.318;2024-03-23T09:55:24;5.43;;;1.30;;
78778;SDS011;68121;52.404;5.318;2024-03-23T09:57:50;5.22;;;1.15;;
78778;SDS011;68121;52.404;5.318;2024-03-23T10:00:16;3.38;;;0.77;;
78778;SDS011;68121;52.404;5.318;2024-03-23T10:02:42;7.82;;;1.42;;
78778;SDS011;68121;52.404;5.318;2024-03-23T10:05:21;6.30;;;1.02;;
78778;SDS011;68121;52.404;5.318;2024-03-23T10:07:49;5.97;;;1.20;;
78778;SDS011;68121;52.404;5.318;2024-03-23T10:10:18;5.07;;;0.98;;
78778;SDS011;68121;52.404;5.318;2024-03-23T10:12:48;6.38;;;1.98;;
78778;SDS011;68121;52.404;5.318;2024-03-23T10:17:45;3.58;;;0.98;;
78778;SDS011;68121;52.404;5.318;2024-03-23T10:20:11;5.53;;;1.33;;
78778;SDS011;68121;52.404;5.318;2024-03-23T10:22:37;9.73;;;1.58;;
78778;SDS011;68121;52.404;5.318;2024-03-23T10:25:08;3.00;;;0.82;;
78778;SDS011;68121;52.404;5.318;2024-03-23T10:27:36;3.78;;;1.23;;
78778;SDS011;68121;52.404;5.318;2024-03-23T10:30:09;3.83;;;0.93;;
78778;SDS011;68121;52.404;5.318;2024-03-23T10:32:37;6.70;;;1.35;;
78778;SDS011;68121;52.404;5.318;2024-03-23T10:37:44;3.53;;;0.70;;
78778;SDS011;68121;52.404;5.318;2024-03-23T10:40:12;4.20;;;1.67;;
78778;SDS011;68121;52.404;5.318;2024-03-23T10:42:39;9.50;;;1.55;;
78778;SDS011;68121;52.404;5.318;2024-03-23T10:45:05;2.15;;;0.63;;
78778;SDS011;68121;52.404;5.318;2024-03-23T10:47:34;3.97;;;1.15;;
78778;SDS011;68121;52.404;5.318;2024-03-23T10:50:01;7.20;;;1.25;;
78778;SDS011;68121;52.404;5.318;2024-03-23T10:52:31;7.60;;;1.23;;
78778;SDS011;68121;52.404;5.318;2024-03-23T10:55:00;3.90;;;0.68;;
78778;SDS011;68121;52.404;5.318;2024-03-23T10:57:34;3.50;;;0.75;;
78778;SDS011;68121;52.404;5.318;2024-03-23T11:00:04;1.45;;;0.60;;
78778;SDS011;68121;52.404;5.318;2024-03-23T11:02:31;7.00;;;0.98;;
78778;SDS011;68121;52.404;5.318;2024-03-23T11:04:57;1.92;;;0.60;;
78778;SDS011;68121;52.404;5.318;2024-03-23T11:09:50;6.88;;;1.30;;
78778;SDS011;68121;52.404;5.318;2024-03-23T11:15:00;5.75;;;1.30;;
78778;SDS011;68121;52.404;5.318;2024-03-23T11:17:30;7.15;;;1.02;;
78778;SDS011;68121;52.404;5.318;2024-03-23T11:22:42;4.00;;;1.13;;
78778;SDS011;68121;52.404;5.318;2024-03-23T11:27:43;6.47;;;1.13;;
78778;SDS011;68121;52.404;5.318;2024-03-23T11:30:11;6.45;;;1.33;;
78778;SDS011;68121;52.404;5.318;2024-03-23T11:32:55;5.13;;;1.00;;
78778;SDS011;68121;52.404;5.318;2024-03-23T11:38:07;6.20;;;0.80;;
78778;SDS011;68121;52.404;5.318;2024-03-23T11:40:43;3.70;;;1.05;;
78778;SDS011;68121;52.404;5.318;2024-03-23T11:43:14;4.53;;;1.35;;
78778;SDS011;68121;52.404;5.318;2024-03-23T11:45:43;10.40;;;1.90;;
78778;SDS011;68121;52.404;5.318;2024-03-23T11:48:11;2.85;;;0.88;;
78778;SDS011;68121;52.404;5.318;2024-03-23T11:50:42;4.18;;;1.02;;
78778;SDS011;68121;52.404;5.318;2024-03-23T11:53:11;8.25;;;1.33;;
78778;SDS011;68121;52.404;5.318;2024-03-23T11:55:41;2.20;;;0.80;;
78778;SDS011;68121;52.404;5.318;2024-03-23T11:58:11;5.32;;;0.75;;
78778;SDS011;68121;52.404;5.318;2024-03-23T12:00:38;3.47;;;0.82;;
78778;SDS011;68121;52.404;5.318;2024-03-23T12:03:05;2.60;;;1.17;;
78778;SDS011;68121;52.404;5.318;2024-03-23T12:05:32;3.20;;;0.98;;
78778;SDS011;68121;52.404;5.318;2024-03-23T12:11:06;2.40;;;0.75;;
78778;SDS011;68121;52.404;5.318;2024-03-23T12:13:37;3.05;;;1.00;;
78778;SDS011;68121;52.404;5.318;2024-03-23T12:16:10;4.75;;;0.70;;
78778;SDS011;68121;52.404;5.318;2024-03-23T12:18:38;5.35;;;0.95;;
78778;SDS011;68121;52.404;5.318;2024-03-23T12:21:06;2.35;;;1.27;;
78778;SDS011;68121;52.404;5.318;2024-03-23T12:23:33;2.85;;;0.80;;
78778;SDS011;68121;52.404;5.318;2024-03-23T12:25:59;0.65;;;0.40;;
78778;SDS011;68121;52.404;5.318;2024-03-23T12:28:25;2.10;;;0.70;;
78778;SDS011;68121;52.404;5.318;2024-03-23T12:30:52;1.35;;;0.63;;
78778;SDS011;68121;52.404;5.318;2024-03-23T12:33:19;2.53;;;0.40;;
78778;SDS011;68121;52.404;5.318;2024-03-23T12:35:50;3.45;;;0.55;;
78778;SDS011;68121;52.404;5.318;2024-03-23T12:38:16;0.75;;;0.25;;
78778;SDS011;68121;52.404;5.318;2024-03-23T12:40:46;0.90;;;0.38;;
78778;SDS011;68121;52.404;5.318;2024-03-23T12:43:16;2.30;;;0.38;;
78778;SDS011;68121;52.404;5.318;2024-03-23T12:45:46;2.38;;;0.57;;
78778;SDS011;68121;52.404;5.318;2024-03-23T12:48:15;1.75;;;0.50;;
78778;SDS011;68121;52.404;5.318;2024-03-23T12:50:42;5.95;;;0.77;;
78778;SDS011;68121;52.404;5.318;2024-03-23T12:53:08;2.17;;;0.60;;
78778;SDS011;68121;52.404;5.318;2024-03-23T12:55:37;3.13;;;0.60;;
78778;SDS011;68121;52.404;5.318;2024-03-23T12:58:03;2.83;;;0.70;;
78778;SDS011;68121;52.404;5.318;2024-03-23T13:00:30;3.50;;;0.40;;
78778;SDS011;68121;52.404;5.318;2024-03-23T13:02:56;3.17;;;0.82;;
78778;SDS011;68121;52.404;5.318;2024-03-23T13:05:22;5.95;;;0.70;;
78778;SDS011;68121;52.404;5.318;2024-03-23T13:07:48;6.30;;;0.90;;
78778;SDS011;68121;52.404;5.318;2024-03-23T13:10:14;12.32;;;1.02;;
78778;SDS011;68121;52.404;5.318;2024-03-23T13:12:41;4.03;;;1.15;;
78778;SDS011;68121;52.404;5.318;2024-03-23T13:15:08;4.15;;;1.27;;
78778;SDS011;68121;52.404;5.318;2024-03-23T13:17:34;4.28;;;0.80;;
78778;SDS011;68121;52.404;5.318;2024-03-23T13:20:00;4.00;;;1.00;;
78778;SDS011;68121;52.404;5.318;2024-03-23T13:22:26;3.85;;;0.73;;
78778;SDS011;68121;52.404;5.318;2024-03-23T13:24:52;4.45;;;0.57;;
78778;SDS011;68121;52.404;5.318;2024-03-23T13:27:18;5.05;;;0.70;;
78778;SDS011;68121;52.404;5.318;2024-03-23T13:29:45;4.15;;;0.98;;
78778;SDS011;68121;52.404;5.318;2024-03-23T13:32:12;5.43;;;0.70;;
78778;SDS011;68121;52.404;5.318;2024-03-23T13:34:39;2.47;;;0.70;;
78778;SDS011;68121;52.404;5.318;2024-03-23T13:37:05;2.10;;;0.47;;
78778;SDS011;68121;52.404;5.318;2024-03-23T13:39:32;4.20;;;0.70;;
78778;SDS011;68121;52.404;5.318;2024-03-23T13:41:59;2.15;;;0.68;;
78778;SDS011;68121;52.404;5.318;2024-03-23T13:44:25;4.03;;;0.65;;
78778;SDS011;68121;52.404;5.318;2024-03-23T13:46:51;4.95;;;0.47;;
78778;SDS011;68121;52.404;5.318;2024-03-23T13:49:27;2.58;;;0.80;;
78778;SDS011;68121;52.404;5.318;2024-03-23T13:51:55;3.60;;;0.50;;
78778;SDS011;68121;52.404;5.318;2024-03-23T13:54:22;8.27;;;0.80;;
78778;SDS011;68121;52.404;5.318;2024-03-23T13:56:50;6.50;;;0.52;;
78778;SDS011;68121;52.404;5.318;2024-03-23T13:59:16;6.13;;;0.88;;
78778;SDS011;68121;52.404;5.318;2024-03-23T14:01:43;2.17;;;0.50;;
78778;SDS011;68121;52.404;5.318;2024-03-23T14:04:11;3.03;;;1.88;;
78778;SDS011;68121;52.404;5.318;2024-03-23T14:06:37;5.80;;;0.80;;
78778;SDS011;68121;52.404;5.318;2024-03-23T14:09:04;6.38;;;1.42;;
78778;SDS011;68121;52.404;5.318;2024-03-23T14:11:31;3.10;;;0.68;;
78778;SDS011;68121;52.404;5.318;2024-03-23T14:13:57;6.93;;;0.70;;
78778;SDS011;68121;52.404;5.318;2024-03-23T14:16:23;1.88;;;0.70;;
78778;SDS011;68121;52.404;5.318;2024-03-23T14:18:49;2.50;;;0.50;;
78778;SDS011;68121;52.404;5.318;2024-03-23T14:21:15;5.30;;;1.25;;
78778;SDS011;68121;52.404;5.318;2024-03-23T14:23:41;3.65;;;0.73;;
78778;SDS011;68121;52.404;5.318;2024-03-23T14:26:07;7.25;;;0.90;;
78778;SDS011;68121;52.404;5.318;2024-03-23T14:28:34;4.20;;;1.23;;
78778;SDS011;68121;52.404;5.318;2024-03-23T14:31:00;3.35;;;0.77;;
78778;SDS011;68121;52.404;5.318;2024-03-23T14:33:26;3.65;;;0.85;;
78778;SDS011;68121;52.404;5.318;2024-03-23T14:35:56;4.90;;;0.80;;
78778;SDS011;68121;52.404;5.318;2024-03-23T14:38:23;5.13;;;0.60;;
78778;SDS011;68121;52.404;5.318;2024-03-23T14:40:49;2.40;;;0.65;;
78778;SDS011;68121;52.404;5.318;2024-03-23T14:43:16;1.65;;;0.47;;
78778;SDS011;68121;52.404;5.318;2024-03-23T14:46:16;1.75;;;0.47;;
78778;SDS011;68121;52.404;5.318;2024-03-23T14:48:36;3.30;;;0.60;;
78778;SDS011;68121;52.404;5.318;2024-03-23T14:51:03;5.13;;;0.90;;
78778;SDS011;68121;52.404;5.318;2024-03-23T14:53:34;5.97;;;1.25;;
78778;SDS011;68121;52.404;5.318;2024-03-23T14:56:02;2.38;;;0.73;;
78778;SDS011;68121;52.404;5.318;2024-03-23T14:58:29;1.38;;;0.80;;
78778;SDS011;68121;52.404;5.318;2024-03-23T15:01:05;4.75;;;0.70;;
78778;SDS011;68121;52.404;5.318;2024-03-23T15:03:36;1.02;;;0.40;;
78778;SDS011;68121;52.404;5.318;2024-03-23T15:06:05;3.50;;;0.70;;
78778;SDS011;68121;52.404;5.318;2024-03-23T15:08:31;3.72;;;0.90;;
78778;SDS011;68121;52.404;5.318;2024-03-23T15:11:01;8.13;;;1.27;;
78778;SDS011;68121;52.404;5.318;2024-03-23T15:13:33;3.97;;;1.00;;
78778;SDS011;68121;52.404;5.318;2024-03-23T15:16:00;5.57;;;0.88;;
78778;SDS011;68121;52.404;5.318;2024-03-23T15:18:29;3.75;;;0.70;;
78778;SDS011;68121;52.404;5.318;2024-03-23T15:20:56;3.08;;;0.47;;
78778;SDS011;68121;52.404;5.318;2024-03-23T15:23:31;2.70;;;0.63;;
78778;SDS011;68121;52.404;5.318;2024-03-23T15:25:58;3.88;;;0.80;;
78778;SDS011;68121;52.404;5.318;2024-03-23T15:28:26;4.50;;;0.93;;
78778;SDS011;68121;52.404;5.318;2024-03-23T15:31:06;6.75;;;1.13;;
78778;SDS011;68121;52.404;5.318;2024-03-23T15:33:33;4.30;;;0.50;;
78778;SDS011;68121;52.404;5.318;2024-03-23T15:35:59;2.38;;;0.50;;
78778;SDS011;68121;52.404;5.318;2024-03-23T15:38:25;4.70;;;0.88;;
78778;SDS011;68121;52.404;5.318;2024-03-23T15:40:52;3.03;;;0.93;;
78778;SDS011;68121;52.404;5.318;2024-03-23T15:43:18;2.42;;;0.60;;
78778;SDS011;68121;52.404;5.318;2024-03-23T15:45:44;4.47;;;0.75;;
78778;SDS011;68121;52.404;5.318;2024-03-23T15:48:19;3.75;;;0.60;;
78778;SDS011;68121;52.404;5.318;2024-03-23T15:50:52;2.08;;;0.60;;
78778;SDS011;68121;52.404;5.318;2024-03-23T15:53:20;3.13;;;0.57;;
78778;SDS011;68121;52.404;5.318;2024-03-23T15:55:56;5.55;;;0.73;;
78778;SDS011;68121;52.404;5.318;2024-03-23T15:58:22;2.30;;;0.60;;
78778;SDS011;68121;52.404;5.318;2024-03-23T16:00:55;3.88;;;0.50;;